Skip to main content.

Regional Weather Summary








Warning: A non-numeric value encountered in /home/nwawlqmy/public_html/regionalwx.php on line 172
Station Name-Location
 
Time
 
Baro
Pressure
Outside
Temp
 Temp
Max
Temp
Min
Dew
Point
RH
%
Wind
Speed
Average
Wind Dir
Wind Max
Last Hr
Wind
Gust Max
Rain
Today
Rain
Last Hr
Rain Rate
in/hr
Rain
Month
Rain
Year
Vermilionweather-Near Lake Vermilion06:23:0830.26 inHg 39.4°F    39.6°F36.1°F36.3°F89%2.2 mph East4.6 mph 4.8 mph 0.00in0.00in0.00in/hr0.02in33.57in
EMA HQ's-Home Gardens- -:- -:- -Old Data  - -.-    - -.-- -.-- -.-- -%- - -.-- -- - -.-- - -.-- - . -
Warning: A non-numeric value encountered in /home/nwawlqmy/public_html/regionalwx.php on line 172
0.00in
0.00in/hr- - . -- - . -
Mahomet06:23:0330.27 inHg 37.8°F   38.1°F34.7°F35.1°F90%2.5 mph NE11.5 mph 11.5 mph 0.00in0.00in0.00in/hr0.01in33.25in

Version 2.12 6th August 2012

If you own a personal weather station
and would like to have your data displayed here,
use the "Contact admin" link at the bottom of the page
to find out how.

For full weather information visit the individual websites above
This page was created by Clevedon Weather using some basic php scripts from TNET Weather.
The script for displaying the data has been produced by Clevedon Weather but has been modified by Vermilionweather.com for it's own use.



Nearby METAR Reports

Nearby METAR Reports

 

KDNV - Danville, Illinois, USA
Distance from station: 0 0mi, 0km
Updated: Thu, 08-Dec-2022 6:15am CST
Mist, Overcast
Mist, Overcast
 Wind from NE
Wind: NE 8 mph , 13 km/h
Temperature: 39°F , 4°C
Wind Chill: 33°F , 1°C
Dew Point: 36°F , 2°C
Humidity: 87%
Barometer: 30.34 inHg , 1027.4 hPa
Summary: Mist
Clouds: Overcast
Visibility: 2 1/2 miles , 4 km
Cloud details: Overcast 11000 ft
2022/12/08 12:15 KDNV 081215Z AUTO 05007KT 2 1/2SM BR OVC110 04/02 A3034 RMK AO2 T00380023
KTIP - Rantoul, Illinois, USA
Distance from station: W 30mi, 48km
Updated: Thu, 08-Dec-2022 6:15am CST
Mist, Mostly cloudy
Mist, Mostly cloudy
 Wind from ENE
Wind: ENE 15 mph , 24 km/h
Temperature: 37°F , 3°C
Wind Chill: 28°F , -2°C
Dew Point: 36°F , 2°C
Humidity: 93%
Barometer: 30.30 inHg , 1026.1 hPa
Summary: Mist
Clouds: Mostly Cloudy
Visibility: 4 miles , 6 km
Cloud details: Partly Cloudy 1900 ft
Mostly Cloudy 11000 ft
2022/12/08 12:15 KTIP 081215Z AUTO 07013KT 4SM BR SCT019 BKN110 03/02 A3030 RMK AO2 T00300021
 
KPRG - Paris, Illinois, USA
Distance from station: S 35mi, 56km
Updated: Thu, 08-Dec-2022 6:15am CST
Mist, Overcast
Mist, Overcast
 Wind from NNE
Wind: NNE 7 mph , 11 km/h
Temperature: 39°F , 4°C
Wind Chill: 34°F , 1°C
Dew Point: 39°F , 4°C
Humidity: 100%
Barometer: 30.34 inHg , 1027.4 hPa
Summary: Mist
Clouds: Overcast
Visibility: 3 miles , 5 km
Cloud details: Partly Cloudy 2000 ft
Overcast 8000 ft
2022/12/08 12:15 KPRG 081215Z AUTO 03006KT 3SM BR SCT020 OVC080 04/04 A3034 RMK AO2 T00400040
KCMI - Champaign/Urbana, Illinois, USA
Distance from station: WSW 37mi, 60km
Updated: Thu, 08-Dec-2022 5:53am CST
Mist, Overcast
Mist, Overcast
 Wind from ENE
Wind: ENE 13 mph , 20 km/h
Temperature: 39°F , 4°C
Wind Chill: 31°F , -1°C
Dew Point: 37°F , 3°C
Humidity: 93%
Barometer: 30.32 inHg , 1026.8 hPa
Summary: Mist
Clouds: Overcast
Visibility: 4 miles , 6 km
Cloud details: Overcast 8500 ft
2022/12/08 11:53 KCMI 081153Z 06011KT 4SM BR OVC085 04/03 A3032 RMK AO2 SLP272 T00440028 10044 20028 55003
 
KLAF - Lafayette, Indiana, USA
Distance from station: ENE 38mi, 61km
Updated: Thu, 08-Dec-2022 5:54am CST
Haze, Clear
Haze, Clear
 Wind from NE
Wind: NE 6 mph , 9 km/h
Temperature: 39°F , 4°C
Wind Chill: 35°F , 2°C
Dew Point: 34°F , 1°C
Humidity: 81%
Barometer: 30.37 inHg , 1028.4 hPa
Summary: Haze
Clouds: Clear
Visibility: 6 miles , 10 km
2022/12/08 11:54 KLAF 081154Z 05005KT 6SM HZ CLR 04/01 A3037 RMK AO2 SLP289 T00390006 10044 20039 53008
KCFJ - Crawfordsville, Indiana, USA
Distance from station: ESE 39mi, 63km
Updated: Tue, 06-Dec-2022 2:35pm CST
NOT Current
Overcast
Overcast
 Wind from NE
Wind: NE 5 mph , 7 km/h
Temperature: 45°F , 7°C
Wind Chill: 42°F , 6°C
Dew Point: 36°F , 2°C
Humidity: 71%
Barometer: 29.97 inHg , 1014.9 hPa
Clouds: Overcast
Visibility: 10 miles , 16 km
Cloud details: Overcast 1400 ft
2022/12/06 20:35 KCFJ 062035Z AUTO 04004KT 10SM OVC014 07/02 A2997 RMK AO2 T00680016

Metar display script from Saratoga-Weather.org

Go To Top